createdAt,value
2018-11-05T00:00:37.140Z,63.60
2018-11-05T00:03:06.653Z,57.37
2018-11-05T00:05:35.691Z,60.07
2018-11-05T00:08:04.839Z,54.27
2018-11-05T00:10:33.808Z,55.37
2018-11-05T00:13:02.768Z,56.80
2018-11-05T00:15:31.751Z,54.97
2018-11-05T00:18:00.747Z,52.17
2018-11-05T00:20:29.700Z,62.23
2018-11-05T00:22:58.676Z,55.30
2018-11-05T00:25:27.611Z,56.57
2018-11-05T00:27:56.584Z,56.20
2018-11-05T00:30:25.513Z,54.33
2018-11-05T00:32:54.495Z,66.63
2018-11-05T00:35:23.448Z,58.83
2018-11-05T00:37:52.419Z,53.37
2018-11-05T00:40:21.378Z,60.07
2018-11-05T00:42:50.301Z,55.30
2018-11-05T00:45:19.619Z,58.17
2018-11-05T00:47:48.603Z,55.13
2018-11-05T00:50:17.547Z,58.53
2018-11-05T00:52:46.548Z,56.77
2018-11-05T00:55:15.467Z,58.43
2018-11-05T00:57:44.410Z,56.40
2018-11-05T01:00:15.357Z,56.03
2018-11-05T01:02:44.315Z,57.73
2018-11-05T01:05:14.653Z,57.40
2018-11-05T01:07:44.382Z,47.80
2018-11-05T01:10:14.769Z,56.00
2018-11-05T01:12:43.741Z,61.43
2018-11-05T01:15:14.019Z,62.27
2018-11-05T01:17:42.997Z,69.63
2018-11-05T01:20:13.048Z,61.47
2018-11-05T01:22:42.082Z,56.57
2018-11-05T01:25:11.120Z,70.67
2018-11-05T01:27:40.216Z,64.63
2018-11-05T01:30:11.652Z,65.63
2018-11-05T01:32:40.708Z,51.90
2018-11-05T01:35:11.067Z,59.10
2018-11-05T01:37:40.079Z,54.83
2018-11-05T01:40:11.159Z,56.00
2018-11-05T01:42:40.313Z,63.90
2018-11-05T01:45:10.543Z,60.83
2018-11-05T01:47:39.705Z,61.03
2018-11-05T01:50:10.375Z,61.30
2018-11-05T01:52:39.473Z,66.70
2018-11-05T01:55:08.994Z,59.87
2018-11-05T01:57:38.681Z,69.20
2018-11-05T02:00:10.863Z,56.20
2018-11-05T02:02:39.899Z,54.23
2018-11-05T02:05:09.696Z,62.73
2018-11-05T02:07:38.790Z,57.10
2018-11-05T02:10:09.855Z,60.13
2018-11-05T02:12:38.854Z,58.87
2018-11-05T02:15:08.161Z,71.67
2018-11-05T02:17:37.144Z,66.43
2018-11-05T02:20:06.426Z,57.27
2018-11-05T02:22:35.377Z,67.50
2018-11-05T02:25:04.598Z,69.47
2018-11-05T02:27:33.623Z,61.37
2018-11-05T02:30:02.561Z,64.77
2018-11-05T02:32:31.529Z,68.80
2018-11-05T02:35:00.486Z,70.83
2018-11-05T02:37:29.437Z,55.20
2018-11-05T02:39:58.402Z,67.50
2018-11-05T02:42:27.374Z,61.67
2018-11-05T02:44:56.348Z,69.67
2018-11-05T02:47:25.309Z,54.77
2018-11-05T02:49:54.249Z,64.53
2018-11-05T02:52:23.245Z,65.80
2018-11-05T02:54:52.254Z,59.43
2018-11-05T02:57:21.207Z,57.90
2018-11-05T02:59:50.867Z,56.13
2018-11-05T03:02:19.874Z,63.77
2018-11-05T03:04:48.834Z,63.43
2018-11-05T03:07:17.839Z,61.53
2018-11-05T03:09:46.786Z,60.33
2018-11-05T03:12:15.792Z,58.83
2018-11-05T03:14:44.740Z,58.13
2018-11-05T03:17:13.680Z,61.87
2018-11-05T03:19:43.148Z,54.00
2018-11-05T03:22:12.126Z,63.17
2018-11-05T03:24:41.106Z,64.73
2018-11-05T03:27:10.123Z,60.70
2018-11-05T03:29:39.136Z,58.53
2018-11-05T03:32:08.112Z,58.33
2018-11-05T03:34:37.104Z,70.47
2018-11-05T03:37:06.087Z,67.30
2018-11-05T03:39:35.071Z,80.13
2018-11-05T03:42:04.097Z,68.87
2018-11-05T03:44:33.134Z,62.13
2018-11-05T03:47:02.153Z,62.57
2018-11-05T03:49:31.147Z,72.93
2018-11-05T03:52:00.137Z,66.57
2018-11-05T03:54:29.081Z,75.53
2018-11-05T03:56:58.078Z,66.63
2018-11-05T03:59:27.052Z,76.70
2018-11-05T04:01:56.025Z,61.93
2018-11-05T04:04:25.049Z,69.40
2018-11-05T04:06:54.068Z,67.07
2018-11-05T04:09:23.023Z,73.73
2018-11-05T04:11:52.062Z,73.03
2018-11-05T04:14:21.032Z,68.03
2018-11-05T04:16:50.021Z,79.10
2018-11-05T04:19:18.968Z,73.83
2018-11-05T04:21:47.951Z,70.37
2018-11-05T04:24:16.951Z,86.40
2018-11-05T04:26:46.558Z,67.83
2018-11-05T04:29:15.511Z,81.87
2018-11-05T04:31:44.488Z,71.10
2018-11-05T04:34:13.465Z,81.97
2018-11-05T04:36:42.400Z,66.37
2018-11-05T04:39:13.999Z,74.10
2018-11-05T04:41:42.997Z,80.47
2018-11-05T04:44:11.978Z,71.43
2018-11-05T04:46:41.088Z,76.50
2018-11-05T04:49:10.554Z,67.20
2018-11-05T04:51:39.505Z,76.00
2018-11-05T04:54:08.494Z,71.27
2018-11-05T04:56:37.549Z,86.60
2018-11-05T04:59:07.073Z,77.60
2018-11-05T05:01:36.074Z,74.93
2018-11-05T05:04:05.059Z,82.20
2018-11-05T05:06:33.996Z,79.90
2018-11-05T05:09:02.937Z,69.77
2018-11-05T05:11:31.924Z,79.10
2018-11-05T05:14:00.871Z,67.10
2018-11-05T05:16:29.851Z,71.93
2018-11-05T05:18:58.791Z,72.73
2018-11-05T05:21:27.781Z,70.27
2018-11-05T05:23:56.697Z,69.27
2018-11-05T05:26:25.778Z,60.93
2018-11-05T05:28:54.727Z,67.97
2018-11-05T05:31:23.720Z,78.07
2018-11-05T05:33:52.693Z,75.77
2018-11-05T05:36:21.624Z,82.80
2018-11-05T05:38:50.597Z,77.07
2018-11-05T05:41:19.589Z,68.53
2018-11-05T05:43:48.533Z,77.23
2018-11-05T05:46:17.488Z,72.23
2018-11-05T05:48:46.465Z,74.17
2018-11-05T05:51:15.576Z,60.67
2018-11-05T05:53:44.512Z,72.13
2018-11-05T05:56:13.510Z,72.10
2018-11-05T05:58:42.493Z,72.07
2018-11-05T06:01:11.445Z,72.90
2018-11-05T06:03:40.553Z,70.30
2018-11-05T06:06:09.862Z,65.87
2018-11-05T06:08:38.875Z,66.33
2018-11-05T06:11:07.814Z,71.00
2018-11-05T06:13:36.802Z,66.60
2018-11-05T06:16:05.801Z,73.40
2018-11-05T06:18:34.802Z,76.80
2018-11-05T06:21:03.776Z,68.20
2018-11-05T06:23:32.826Z,68.07
2018-11-05T06:26:01.766Z,66.27
2018-11-05T06:28:30.809Z,69.17
2018-11-05T06:30:59.741Z,69.87
2018-11-05T06:33:28.636Z,75.83
2018-11-05T06:35:57.655Z,68.23
2018-11-05T06:38:26.644Z,65.40
2018-11-05T06:40:55.620Z,71.90
2018-11-05T06:43:24.555Z,70.27
2018-11-05T06:45:53.481Z,76.13
2018-11-05T06:48:22.414Z,57.07
2018-11-05T06:50:51.358Z,76.83
2018-11-05T06:53:20.344Z,59.43
2018-11-05T06:55:49.311Z,58.40
2018-11-05T06:58:18.276Z,61.13
2018-11-05T07:00:47.219Z,69.87
2018-11-05T07:03:16.187Z,66.50
2018-11-05T07:05:46.943Z,65.17
2018-11-05T07:08:15.872Z,59.37
2018-11-05T07:10:44.830Z,64.13
2018-11-05T07:13:15.340Z,67.13
2018-11-05T07:15:44.902Z,60.73
2018-11-05T07:18:13.905Z,57.30
2018-11-05T07:20:45.590Z,66.30
2018-11-05T07:23:17.129Z,61.23
2018-11-05T07:25:46.632Z,65.87
2018-11-05T07:28:16.280Z,58.17
2018-11-05T07:30:45.230Z,60.67
2018-11-05T07:33:16.572Z,68.77
2018-11-05T07:35:46.605Z,60.33
2018-11-05T07:38:16.550Z,64.73
2018-11-05T07:40:45.513Z,60.27
2018-11-05T07:43:14.463Z,54.23
2018-11-05T07:45:43.984Z,67.87
2018-11-05T07:48:12.927Z,63.00
2018-11-05T07:50:42.931Z,64.70
2018-11-05T07:53:13.348Z,62.87
2018-11-05T07:55:42.331Z,55.27
2018-11-05T07:58:11.957Z,59.17
2018-11-05T08:00:46.258Z,55.77
2018-11-05T08:03:15.257Z,60.10
2018-11-05T08:05:45.322Z,62.87
2018-11-05T08:08:14.356Z,63.27
2018-11-05T08:10:43.244Z,67.50
2018-11-05T08:13:14.799Z,61.57
2018-11-05T08:15:44.397Z,60.37
2018-11-05T08:18:13.383Z,55.77
2018-11-05T08:20:44.808Z,58.40
2018-11-05T08:23:13.728Z,56.20
2018-11-05T08:25:42.705Z,51.33
2018-11-05T08:28:12.774Z,57.30
2018-11-05T08:30:41.680Z,54.90
2018-11-05T08:33:10.749Z,60.70
2018-11-05T08:35:39.707Z,59.47
2018-11-05T08:38:08.639Z,50.53
2018-11-05T08:40:38.367Z,57.97
2018-11-05T08:43:07.327Z,57.13
2018-11-05T08:45:36.255Z,55.50
2018-11-05T08:48:05.343Z,60.33
2018-11-05T08:50:34.734Z,44.63
2018-11-05T08:53:03.812Z,60.60
2018-11-05T08:55:32.747Z,58.20
2018-11-05T08:58:02.544Z,58.17
2018-11-05T09:00:37.403Z,63.23
2018-11-05T09:03:06.510Z,56.60
2018-11-05T09:05:36.510Z,53.60
2018-11-05T09:08:05.459Z,60.60
2018-11-05T09:10:35.191Z,59.47
2018-11-05T09:13:05.260Z,58.27
2018-11-05T09:15:37.041Z,59.90
2018-11-05T09:18:07.321Z,66.67
2018-11-05T09:20:36.296Z,52.40
2018-11-05T09:23:05.723Z,52.70
2018-11-05T09:25:36.508Z,51.60
2018-11-05T09:28:08.186Z,45.10
2018-11-05T09:30:37.115Z,57.17
2018-11-05T09:33:06.054Z,53.13
2018-11-05T09:35:35.047Z,62.97
2018-11-05T09:38:04.728Z,50.83
2018-11-05T09:40:33.699Z,55.93
2018-11-05T09:43:02.668Z,54.63
2018-11-05T09:45:32.648Z,50.90
2018-11-05T09:48:01.629Z,54.33
2018-11-05T09:50:32.632Z,57.03
2018-11-05T09:53:01.597Z,54.70
2018-11-05T09:55:30.583Z,52.43
2018-11-05T09:57:59.558Z,51.97
2018-11-05T10:00:29.466Z,53.17
2018-11-05T10:03:03.891Z,56.40
2018-11-05T10:05:33.560Z,55.53
2018-11-05T10:08:02.459Z,57.10
2018-11-05T10:10:34.230Z,54.77
2018-11-05T10:13:03.246Z,53.97
2018-11-05T10:15:32.254Z,60.90
2018-11-05T10:18:01.193Z,59.60
2018-11-05T10:20:30.120Z,52.40
2018-11-05T10:23:00.939Z,56.30
2018-11-05T10:25:29.921Z,52.87
2018-11-05T10:28:03.486Z,58.67
2018-11-05T10:30:33.137Z,57.23
2018-11-05T10:33:02.107Z,53.97
2018-11-05T10:36:04.327Z,57.57
2018-11-05T10:38:35.500Z,61.67
2018-11-05T10:41:04.461Z,55.17
2018-11-05T10:43:34.016Z,59.73
2018-11-05T10:46:03.041Z,59.23
2018-11-05T10:48:33.016Z,62.73
2018-11-05T10:51:02.062Z,55.63
2018-11-05T10:53:30.947Z,62.37
2018-11-05T10:56:00.814Z,64.47
2018-11-05T10:58:30.595Z,61.50
2018-11-05T11:01:05.322Z,60.70
2018-11-05T11:03:36.643Z,63.33
2018-11-05T11:06:06.832Z,66.10
2018-11-05T11:08:35.768Z,73.80
2018-11-05T11:11:06.797Z,62.47
2018-11-05T11:13:36.972Z,60.90
2018-11-05T11:16:05.900Z,64.87
2018-11-05T11:18:35.889Z,63.17
2018-11-05T11:21:05.334Z,67.23
2018-11-05T11:23:34.793Z,63.57
2018-11-05T11:26:03.766Z,60.87
2018-11-05T11:28:32.919Z,64.70
2018-11-05T11:31:01.860Z,66.70
2018-11-05T11:33:34.228Z,66.50
2018-11-05T11:36:03.801Z,61.17
2018-11-05T11:38:32.877Z,69.47
2018-11-05T11:41:02.327Z,68.13
2018-11-05T11:43:32.165Z,61.00
2018-11-05T11:46:01.187Z,71.93
2018-11-05T11:48:31.077Z,75.43
2018-11-05T11:51:00.050Z,68.40
2018-11-05T11:53:30.516Z,67.17
2018-11-05T11:55:59.980Z,68.27
2018-11-05T11:58:28.907Z,64.53
2018-11-05T12:00:57.915Z,64.70
2018-11-05T12:03:26.879Z,66.63
2018-11-05T12:05:55.796Z,72.10
2018-11-05T12:08:24.767Z,84.00
2018-11-05T12:10:53.724Z,71.43
2018-11-05T12:13:22.698Z,79.40
2018-11-05T12:15:52.700Z,68.33
2018-11-05T12:18:22.525Z,79.03
2018-11-05T12:20:52.361Z,76.20
2018-11-05T12:23:21.302Z,59.30
2018-11-05T12:25:51.087Z,56.63
2018-11-05T12:28:20.798Z,66.70
2018-11-05T12:30:49.731Z,57.30
2018-11-05T12:33:19.929Z,68.57
2018-11-05T12:35:50.377Z,72.77
2018-11-05T12:38:19.340Z,64.53
2018-11-05T12:40:48.334Z,68.57
2018-11-05T12:43:20.416Z,60.00
2018-11-05T12:45:50.706Z,66.50
2018-11-05T12:48:20.893Z,72.60
2018-11-05T12:50:50.015Z,65.63
2018-11-05T12:53:18.868Z,74.17
2018-11-05T12:55:48.761Z,72.53
2018-11-05T12:58:17.936Z,67.87
2018-11-05T13:00:47.620Z,64.20
2018-11-05T13:03:16.596Z,64.10
2018-11-05T13:05:45.511Z,63.53
2018-11-05T13:08:14.489Z,122.57
2018-11-05T13:10:44.349Z,66.00
2018-11-05T13:13:13.310Z,65.63
2018-11-05T13:15:43.287Z,62.20
2018-11-05T13:18:12.768Z,59.60
2018-11-05T13:20:43.040Z,67.17
2018-11-05T13:23:12.055Z,59.47
2018-11-05T13:25:40.997Z,59.90
2018-11-05T13:28:09.994Z,67.17
2018-11-05T13:30:38.959Z,62.47
2018-11-05T13:33:07.910Z,55.63
2018-11-05T13:35:40.496Z,62.03
2018-11-05T13:38:10.000Z,54.43
2018-11-05T13:40:38.406Z,57.20
2018-11-05T13:43:08.090Z,61.63
2018-11-05T13:45:37.766Z,65.20
2018-11-05T13:48:06.944Z,63.47
2018-11-05T13:50:36.323Z,64.37
2018-11-05T13:53:06.213Z,51.57
2018-11-05T13:55:35.857Z,56.97
2018-11-05T13:58:05.371Z,53.30
2018-11-05T14:00:34.858Z,62.83
2018-11-05T14:03:03.903Z,63.40
2018-11-05T14:05:32.963Z,55.47
2018-11-05T14:08:02.694Z,60.77
2018-11-05T14:10:32.802Z,64.40
2018-11-05T14:13:01.787Z,65.30
2018-11-05T14:15:31.195Z,64.27
2018-11-05T14:18:00.294Z,55.27
2018-11-05T14:20:30.046Z,64.37
2018-11-05T14:22:59.025Z,65.10
2018-11-05T14:25:28.367Z,59.80
2018-11-05T14:27:58.142Z,68.87
2018-11-05T14:30:28.161Z,54.00
2018-11-05T14:32:57.235Z,54.70
2018-11-05T14:35:26.188Z,58.40
2018-11-05T14:37:55.165Z,55.77
2018-11-05T14:40:25.103Z,54.27
2018-11-05T14:42:54.093Z,74.73
2018-11-05T14:45:26.075Z,52.00
2018-11-05T14:47:55.000Z,55.20
2018-11-05T14:50:24.987Z,55.20
2018-11-05T14:52:53.949Z,64.63
2018-11-05T14:55:23.591Z,54.07
2018-11-05T14:57:52.768Z,60.43
2018-11-05T15:00:26.188Z,58.77
2018-11-05T15:02:56.575Z,66.73
2018-11-05T15:05:25.539Z,62.37
2018-11-05T15:07:54.991Z,63.53
2018-11-05T15:10:26.270Z,51.30
2018-11-05T15:12:55.259Z,64.40
2018-11-05T15:15:24.247Z,61.10
2018-11-05T15:17:53.242Z,53.80
2018-11-05T15:20:24.052Z,56.50
2018-11-05T15:22:57.033Z,65.33
2018-11-05T15:25:26.117Z,57.20
2018-11-05T15:27:55.671Z,58.83
2018-11-05T15:30:25.898Z,55.43
2018-11-05T15:32:55.853Z,53.57
2018-11-05T15:35:26.224Z,52.50
2018-11-05T15:37:55.333Z,55.37
2018-11-05T15:40:25.271Z,58.30
2018-11-05T15:42:54.273Z,56.20
2018-11-05T15:45:23.357Z,59.20
2018-11-05T15:47:52.320Z,51.80
2018-11-05T15:50:21.867Z,55.50
2018-11-05T15:52:53.440Z,61.70
2018-11-05T15:55:22.151Z,49.53
2018-11-05T15:57:51.844Z,55.03
2018-11-05T16:00:25.686Z,56.87
2018-11-05T16:02:57.030Z,54.57
2018-11-05T16:05:27.153Z,54.57
2018-11-05T16:07:56.141Z,59.97
2018-11-05T16:10:25.901Z,58.20
2018-11-05T16:12:57.772Z,56.57
2018-11-05T16:15:27.832Z,55.13
2018-11-05T16:17:59.527Z,58.83
2018-11-05T16:20:28.471Z,55.37
2018-11-05T16:22:57.424Z,55.43
2018-11-05T16:25:26.370Z,57.03
2018-11-05T16:27:57.631Z,56.17
2018-11-05T16:30:26.648Z,57.40
2018-11-05T16:32:55.589Z,58.53
2018-11-05T16:35:26.482Z,54.27
2018-11-05T16:37:55.414Z,53.57
2018-11-05T16:40:25.534Z,56.07
2018-11-05T16:42:55.803Z,50.73
2018-11-05T16:45:25.818Z,63.20
2018-11-05T16:47:55.690Z,51.60
2018-11-05T16:50:27.347Z,53.30
2018-11-05T16:52:56.926Z,53.80
2018-11-05T16:55:27.745Z,54.27
2018-11-05T16:57:59.962Z,55.23
2018-11-05T17:00:28.966Z,58.47
2018-11-05T17:02:57.984Z,50.73
2018-11-05T17:05:29.686Z,58.30
2018-11-05T17:07:59.253Z,55.70
2018-11-05T17:10:28.284Z,57.40
2018-11-05T17:13:00.387Z,54.87
2018-11-05T17:15:29.313Z,55.20
2018-11-05T17:17:58.326Z,56.83
2018-11-05T17:20:27.315Z,56.57
2018-11-05T17:22:56.326Z,56.40
2018-11-05T17:25:25.326Z,59.93
2018-11-05T17:27:55.036Z,56.47
2018-11-05T17:30:23.973Z,53.57
2018-11-05T17:32:53.641Z,52.67
2018-11-05T17:35:22.653Z,56.00
2018-11-05T17:37:53.634Z,62.60
2018-11-05T17:40:23.980Z,58.93
2018-11-05T17:42:53.815Z,57.17
2018-11-05T17:45:24.329Z,55.63
2018-11-05T17:47:53.329Z,57.40
2018-11-05T17:50:23.283Z,51.43
2018-11-05T17:52:52.252Z,48.07
2018-11-05T17:55:22.200Z,56.50
2018-11-05T17:57:51.218Z,56.23
2018-11-05T18:00:21.403Z,58.03
2018-11-05T18:02:50.405Z,58.20
2018-11-05T18:05:20.201Z,51.33
2018-11-05T18:07:49.531Z,57.27
2018-11-05T18:10:18.548Z,59.70
2018-11-05T18:12:47.551Z,52.27
2018-11-05T18:15:17.661Z,57.30
2018-11-05T18:17:47.107Z,57.17
2018-11-05T18:20:16.823Z,57.47
2018-11-05T18:22:47.917Z,59.93
2018-11-05T18:25:18.222Z,57.70
2018-11-05T18:27:47.891Z,52.63
2018-11-05T18:30:20.212Z,53.23
2018-11-05T18:32:49.245Z,58.97
2018-11-05T18:35:18.225Z,55.90
2018-11-05T18:37:50.187Z,50.57
2018-11-05T18:40:20.783Z,51.63
2018-11-05T18:42:51.079Z,52.93
2018-11-05T18:45:20.171Z,60.53
2018-11-05T18:47:50.911Z,57.10
2018-11-05T18:50:19.982Z,52.23
2018-11-05T18:52:49.647Z,59.07
2018-11-05T18:55:20.029Z,52.47
2018-11-05T18:57:52.015Z,56.53
2018-11-05T19:00:25.837Z,54.77
2018-11-05T19:02:56.268Z,52.63
2018-11-05T19:05:26.397Z,55.47
2018-11-05T19:07:55.455Z,75.47
2018-11-05T19:10:24.724Z,75.53
2018-11-05T19:12:56.571Z,78.50
2018-11-05T19:15:25.573Z,67.03
2018-11-05T19:17:55.901Z,55.13
2018-11-05T19:20:26.199Z,54.03
2018-11-05T19:22:55.285Z,55.10
2018-11-05T19:25:24.186Z,56.43
2018-11-05T19:27:53.251Z,58.67
2018-11-05T19:30:23.875Z,56.93
2018-11-05T19:32:52.835Z,50.97
2018-11-05T19:35:21.830Z,57.00
2018-11-05T19:37:52.938Z,53.10
2018-11-05T19:40:21.939Z,55.20
2018-11-05T19:42:51.094Z,49.03
2018-11-05T19:45:21.356Z,52.63
2018-11-05T19:47:50.329Z,55.63
2018-11-05T19:50:20.591Z,51.77
2018-11-05T19:52:50.596Z,56.13
2018-11-05T19:55:19.998Z,67.70
2018-11-05T19:57:49.610Z,53.70
2018-11-05T20:00:20.185Z,57.57
2018-11-05T20:02:49.785Z,57.20
2018-11-05T20:05:19.057Z,60.17
2018-11-05T20:07:48.580Z,48.93
2018-11-05T20:10:17.611Z,56.60
2018-11-05T20:12:46.934Z,51.90
2018-11-05T20:15:16.273Z,55.07
2018-11-05T20:17:46.105Z,59.63
2018-11-05T20:20:16.559Z,53.90
2018-11-05T20:22:45.670Z,48.53
2018-11-05T20:25:14.620Z,47.77
2018-11-05T20:27:43.883Z,51.57
2018-11-05T20:30:15.548Z,52.43
2018-11-05T20:32:45.813Z,46.90
2018-11-05T20:35:14.622Z,53.63
2018-11-05T20:37:43.599Z,53.00
2018-11-05T20:40:14.907Z,50.63
2018-11-05T20:42:45.001Z,48.77
2018-11-05T20:45:14.635Z,49.07
2018-11-05T20:47:43.864Z,49.57
2018-11-05T20:50:13.783Z,52.03
2018-11-05T20:52:42.767Z,46.20
2018-11-05T20:55:13.072Z,55.50
2018-11-05T20:57:42.502Z,49.93
2018-11-05T21:00:13.280Z,48.27
2018-11-05T21:02:42.689Z,58.40
2018-11-05T21:05:11.733Z,48.97
2018-11-05T21:07:41.745Z,51.60
2018-11-05T21:10:11.919Z,52.43
2018-11-05T21:12:41.605Z,49.00
2018-11-05T21:15:13.859Z,49.13
2018-11-05T21:17:43.407Z,52.53
2018-11-05T21:20:12.763Z,53.40
2018-11-05T21:22:41.851Z,51.73
2018-11-05T21:25:10.983Z,52.30
2018-11-05T21:27:40.544Z,51.03
2018-11-05T21:30:11.334Z,49.80
2018-11-05T21:32:40.474Z,55.47
2018-11-05T21:35:11.668Z,49.70
2018-11-05T21:37:41.003Z,45.30
2018-11-05T21:40:11.104Z,39.33
2018-11-05T21:42:40.138Z,38.60
2018-11-05T21:45:10.486Z,35.67
2018-11-05T21:47:40.148Z,32.80
2018-11-05T21:50:10.810Z,37.47
2018-11-05T21:52:40.653Z,38.40
2018-11-05T21:55:09.803Z,38.40
2018-11-05T21:57:40.470Z,46.13
2018-11-05T22:00:18.249Z,40.53
2018-11-05T22:02:52.486Z,39.93
2018-11-05T22:05:21.463Z,48.23
2018-11-05T22:07:50.485Z,52.23
2018-11-05T22:10:19.455Z,42.93
2018-11-05T22:12:48.755Z,43.67
2018-11-05T22:15:17.975Z,44.60
2018-11-05T22:17:46.950Z,39.73
2018-11-05T22:20:15.884Z,44.43
2018-11-05T22:22:45.008Z,46.23
2018-11-05T22:25:13.873Z,45.43
2018-11-05T22:27:42.818Z,43.87
2018-11-05T22:30:12.290Z,48.53
2018-11-05T22:32:41.260Z,39.50
2018-11-05T22:35:10.223Z,41.93
2018-11-05T22:37:39.168Z,40.60
2018-11-05T22:40:10.807Z,43.33
2018-11-05T22:42:39.772Z,37.87
2018-11-05T22:45:09.157Z,40.67
2018-11-05T22:47:38.136Z,36.63
2018-11-05T22:50:07.762Z,34.07
2018-11-05T22:52:36.797Z,39.97
2018-11-05T22:55:06.332Z,40.87
2018-11-05T22:57:35.297Z,42.70
2018-11-05T23:00:05.463Z,46.17
2018-11-05T23:02:34.932Z,41.83
2018-11-05T23:05:03.916Z,46.90
2018-11-05T23:07:32.864Z,35.57
2018-11-05T23:10:01.855Z,37.90
2018-11-05T23:12:30.846Z,36.90
2018-11-05T23:14:59.821Z,36.90
2018-11-05T23:17:28.797Z,32.93
2018-11-05T23:19:57.821Z,36.00
2018-11-05T23:22:26.805Z,41.97
2018-11-05T23:24:55.823Z,36.53
2018-11-05T23:27:24.742Z,40.03
2018-11-05T23:29:55.762Z,32.03
2018-11-05T23:32:25.900Z,38.60
2018-11-05T23:34:54.882Z,29.07
2018-11-05T23:37:23.838Z,21.33
2018-11-05T23:39:52.775Z,25.63
2018-11-05T23:42:21.788Z,26.87
2018-11-05T23:44:50.786Z,25.53
2018-11-05T23:47:19.733Z,23.90
2018-11-05T23:49:48.759Z,30.40
2018-11-05T23:52:17.745Z,26.47
2018-11-05T23:54:46.734Z,40.80
2018-11-05T23:57:15.701Z,22.47
2018-11-05T23:59:44.645Z,23.97
